sensor_id;sensor_type;location;lat;lon;timestamp;P1;durP1;ratioP1;P2;durP2;ratioP2
68577;SDS011;61668;45.388;11.784;2022-08-03T00:01:42;10.10;;;4.20;;
68577;SDS011;61668;45.388;11.784;2022-08-03T00:04:09;9.10;;;3.70;;
68577;SDS011;61668;45.388;11.784;2022-08-03T00:06:36;8.00;;;3.50;;
68577;SDS011;61668;45.388;11.784;2022-08-03T00:09:05;8.10;;;3.20;;
68577;SDS011;61668;45.388;11.784;2022-08-03T00:11:31;8.10;;;3.20;;
68577;SDS011;61668;45.388;11.784;2022-08-03T00:13:57;8.10;;;3.00;;
68577;SDS011;61668;45.388;11.784;2022-08-03T00:16:22;9.50;;;4.10;;
68577;SDS011;61668;45.388;11.784;2022-08-03T00:18:49;9.00;;;3.00;;
68577;SDS011;61668;45.388;11.784;2022-08-03T00:21:15;9.20;;;3.80;;
68577;SDS011;61668;45.388;11.784;2022-08-03T00:23:41;8.30;;;3.40;;
68577;SDS011;61668;45.388;11.784;2022-08-03T00:26:06;7.50;;;3.60;;
68577;SDS011;61668;45.388;11.784;2022-08-03T00:28:32;7.50;;;3.10;;
68577;SDS011;61668;45.388;11.784;2022-08-03T00:30:57;7.70;;;3.40;;
68577;SDS011;61668;45.388;11.784;2022-08-03T00:33:23;7.60;;;3.00;;
68577;SDS011;61668;45.388;11.784;2022-08-03T00:35:48;7.70;;;3.50;;
68577;SDS011;61668;45.388;11.784;2022-08-03T00:38:14;8.70;;;3.20;;
68577;SDS011;61668;45.388;11.784;2022-08-03T00:40:39;7.50;;;3.40;;
68577;SDS011;61668;45.388;11.784;2022-08-03T00:43:06;8.60;;;3.30;;
68577;SDS011;61668;45.388;11.784;2022-08-03T00:45:35;8.60;;;3.30;;
68577;SDS011;61668;45.388;11.784;2022-08-03T00:48:03;7.70;;;2.80;;
68577;SDS011;61668;45.388;11.784;2022-08-03T00:50:33;7.30;;;3.10;;
68577;SDS011;61668;45.388;11.784;2022-08-03T00:53:03;6.90;;;2.60;;
68577;SDS011;61668;45.388;11.784;2022-08-03T00:55:30;7.00;;;2.70;;
68577;SDS011;61668;45.388;11.784;2022-08-03T00:57:56;9.10;;;2.80;;
68577;SDS011;61668;45.388;11.784;2022-08-03T01:00:25;8.20;;;2.80;;
68577;SDS011;61668;45.388;11.784;2022-08-03T01:02:52;8.30;;;2.80;;
68577;SDS011;61668;45.388;11.784;2022-08-03T01:05:19;7.70;;;3.30;;
68577;SDS011;61668;45.388;11.784;2022-08-03T01:07:50;8.00;;;2.50;;
68577;SDS011;61668;45.388;11.784;2022-08-03T01:10:31;8.60;;;3.20;;
68577;SDS011;61668;45.388;11.784;2022-08-03T01:13:24;7.20;;;2.60;;
68577;SDS011;61668;45.388;11.784;2022-08-03T01:21:52;8.00;;;2.70;;
68577;SDS011;61668;45.388;11.784;2022-08-03T01:24:35;7.70;;;2.80;;
68577;SDS011;61668;45.388;11.784;2022-08-03T01:28:07;7.20;;;2.60;;
68577;SDS011;61668;45.388;11.784;2022-08-03T01:30:40;7.20;;;2.60;;
68577;SDS011;61668;45.388;11.784;2022-08-03T01:33:16;7.90;;;2.90;;
68577;SDS011;61668;45.388;11.784;2022-08-03T01:35:53;6.90;;;2.60;;
68577;SDS011;61668;45.388;11.784;2022-08-03T01:38:31;7.30;;;2.90;;
68577;SDS011;61668;45.388;11.784;2022-08-03T01:41:03;6.70;;;2.70;;
68577;SDS011;61668;45.388;11.784;2022-08-03T01:43:32;8.30;;;2.40;;
68577;SDS011;61668;45.388;11.784;2022-08-03T01:45:58;7.30;;;2.70;;
68577;SDS011;61668;45.388;11.784;2022-08-03T01:48:26;7.20;;;2.70;;
68577;SDS011;61668;45.388;11.784;2022-08-03T01:50:53;6.90;;;2.30;;
68577;SDS011;61668;45.388;11.784;2022-08-03T01:53:20;8.20;;;2.20;;
68577;SDS011;61668;45.388;11.784;2022-08-03T01:55:48;7.80;;;2.40;;
68577;SDS011;61668;45.388;11.784;2022-08-03T01:58:18;8.40;;;3.30;;
68577;SDS011;61668;45.388;11.784;2022-08-03T02:00:47;6.80;;;2.40;;
68577;SDS011;61668;45.388;11.784;2022-08-03T02:03:14;6.70;;;2.10;;
68577;SDS011;61668;45.388;11.784;2022-08-03T02:05:42;7.80;;;3.20;;
68577;SDS011;61668;45.388;11.784;2022-08-03T02:08:12;7.30;;;2.50;;
68577;SDS011;61668;45.388;11.784;2022-08-03T02:10:39;6.90;;;2.50;;
68577;SDS011;61668;45.388;11.784;2022-08-03T02:13:07;9.50;;;3.70;;
68577;SDS011;61668;45.388;11.784;2022-08-03T02:15:36;7.70;;;3.10;;
68577;SDS011;61668;45.388;11.784;2022-08-03T02:18:05;8.40;;;2.50;;
68577;SDS011;61668;45.388;11.784;2022-08-03T02:20:32;7.80;;;2.70;;
68577;SDS011;61668;45.388;11.784;2022-08-03T02:23:02;7.60;;;3.40;;
68577;SDS011;61668;45.388;11.784;2022-08-03T02:25:29;7.10;;;2.70;;
68577;SDS011;61668;45.388;11.784;2022-08-03T02:27:57;8.70;;;3.30;;
68577;SDS011;61668;45.388;11.784;2022-08-03T02:30:37;7.70;;;3.30;;
68577;SDS011;61668;45.388;11.784;2022-08-03T02:33:04;7.00;;;2.60;;
68577;SDS011;61668;45.388;11.784;2022-08-03T02:35:34;9.10;;;3.10;;
68577;SDS011;61668;45.388;11.784;2022-08-03T02:38:02;8.50;;;3.30;;
68577;SDS011;61668;45.388;11.784;2022-08-03T02:40:31;8.10;;;3.10;;
68577;SDS011;61668;45.388;11.784;2022-08-03T02:43:01;7.20;;;2.70;;
68577;SDS011;61668;45.388;11.784;2022-08-03T02:45:35;7.40;;;2.90;;
68577;SDS011;61668;45.388;11.784;2022-08-03T02:48:02;7.80;;;3.40;;
68577;SDS011;61668;45.388;11.784;2022-08-03T02:50:30;7.50;;;2.90;;
68577;SDS011;61668;45.388;11.784;2022-08-03T02:52:58;7.90;;;2.70;;
68577;SDS011;61668;45.388;11.784;2022-08-03T02:55:26;6.80;;;2.20;;
68577;SDS011;61668;45.388;11.784;2022-08-03T02:57:53;8.10;;;2.30;;
68577;SDS011;61668;45.388;11.784;2022-08-03T03:00:19;8.00;;;2.30;;
68577;SDS011;61668;45.388;11.784;2022-08-03T03:02:46;7.40;;;2.00;;
68577;SDS011;61668;45.388;11.784;2022-08-03T03:05:11;7.30;;;2.50;;
68577;SDS011;61668;45.388;11.784;2022-08-03T03:07:38;7.70;;;2.50;;
68577;SDS011;61668;45.388;11.784;2022-08-03T03:10:05;6.90;;;2.30;;
68577;SDS011;61668;45.388;11.784;2022-08-03T03:12:32;7.80;;;2.50;;
68577;SDS011;61668;45.388;11.784;2022-08-03T03:15:00;6.50;;;2.40;;
68577;SDS011;61668;45.388;11.784;2022-08-03T03:17:26;7.30;;;2.10;;
68577;SDS011;61668;45.388;11.784;2022-08-03T03:19:52;6.60;;;2.10;;
68577;SDS011;61668;45.388;11.784;2022-08-03T03:22:18;7.10;;;1.90;;
68577;SDS011;61668;45.388;11.784;2022-08-03T03:24:45;7.20;;;1.80;;
68577;SDS011;61668;45.388;11.784;2022-08-03T03:27:15;7.20;;;2.60;;
68577;SDS011;61668;45.388;11.784;2022-08-03T03:29:41;6.60;;;1.90;;
68577;SDS011;61668;45.388;11.784;2022-08-03T03:32:06;7.60;;;2.50;;
68577;SDS011;61668;45.388;11.784;2022-08-03T03:34:32;6.40;;;2.20;;
68577;SDS011;61668;45.388;11.784;2022-08-03T03:36:58;7.80;;;2.20;;
68577;SDS011;61668;45.388;11.784;2022-08-03T03:39:23;7.00;;;2.20;;
68577;SDS011;61668;45.388;11.784;2022-08-03T03:41:49;6.80;;;1.70;;
68577;SDS011;61668;45.388;11.784;2022-08-03T03:44:15;8.30;;;2.40;;
68577;SDS011;61668;45.388;11.784;2022-08-03T03:46:41;7.30;;;1.90;;
68577;SDS011;61668;45.388;11.784;2022-08-03T03:49:07;6.20;;;1.60;;
68577;SDS011;61668;45.388;11.784;2022-08-03T03:51:33;8.40;;;2.40;;
68577;SDS011;61668;45.388;11.784;2022-08-03T03:54:01;7.30;;;2.20;;
68577;SDS011;61668;45.388;11.784;2022-08-03T03:56:30;8.00;;;2.20;;
68577;SDS011;61668;45.388;11.784;2022-08-03T03:58:55;6.90;;;2.30;;
68577;SDS011;61668;45.388;11.784;2022-08-03T04:01:21;10.30;;;2.30;;
68577;SDS011;61668;45.388;11.784;2022-08-03T04:03:47;6.80;;;2.20;;
68577;SDS011;61668;45.388;11.784;2022-08-03T04:06:13;6.90;;;1.80;;
68577;SDS011;61668;45.388;11.784;2022-08-03T04:08:59;6.90;;;2.50;;
68577;SDS011;61668;45.388;11.784;2022-08-03T04:11:57;7.90;;;2.40;;
68577;SDS011;61668;45.388;11.784;2022-08-03T04:14:32;6.90;;;2.60;;
68577;SDS011;61668;45.388;11.784;2022-08-03T04:17:01;8.00;;;3.20;;
68577;SDS011;61668;45.388;11.784;2022-08-03T04:19:42;6.30;;;2.30;;
68577;SDS011;61668;45.388;11.784;2022-08-03T04:22:15;7.40;;;2.30;;
68577;SDS011;61668;45.388;11.784;2022-08-03T04:24:51;7.80;;;2.50;;
68577;SDS011;61668;45.388;11.784;2022-08-03T04:27:23;10.50;;;2.30;;
68577;SDS011;61668;45.388;11.784;2022-08-03T04:29:52;8.20;;;2.40;;
68577;SDS011;61668;45.388;11.784;2022-08-03T04:32:20;7.90;;;3.00;;
68577;SDS011;61668;45.388;11.784;2022-08-03T04:34:50;7.20;;;2.00;;
68577;SDS011;61668;45.388;11.784;2022-08-03T04:37:32;7.00;;;1.80;;
68577;SDS011;61668;45.388;11.784;2022-08-03T04:40:05;9.10;;;2.40;;
68577;SDS011;61668;45.388;11.784;2022-08-03T04:42:33;6.90;;;1.80;;
68577;SDS011;61668;45.388;11.784;2022-08-03T04:44:59;8.10;;;2.10;;
68577;SDS011;61668;45.388;11.784;2022-08-03T04:47:29;7.20;;;2.70;;
68577;SDS011;61668;45.388;11.784;2022-08-03T04:49:56;7.80;;;2.50;;
68577;SDS011;61668;45.388;11.784;2022-08-03T04:52:22;8.40;;;3.00;;
68577;SDS011;61668;45.388;11.784;2022-08-03T04:54:47;7.20;;;2.10;;
68577;SDS011;61668;45.388;11.784;2022-08-03T04:57:13;7.90;;;2.20;;
68577;SDS011;61668;45.388;11.784;2022-08-03T04:59:39;7.10;;;2.10;;
68577;SDS011;61668;45.388;11.784;2022-08-03T05:02:04;7.10;;;2.20;;
68577;SDS011;61668;45.388;11.784;2022-08-03T05:04:31;6.60;;;2.30;;
68577;SDS011;61668;45.388;11.784;2022-08-03T05:06:56;7.70;;;2.60;;
68577;SDS011;61668;45.388;11.784;2022-08-03T05:09:22;6.40;;;2.10;;
68577;SDS011;61668;45.388;11.784;2022-08-03T05:11:47;7.70;;;2.50;;
68577;SDS011;61668;45.388;11.784;2022-08-03T05:14:13;6.60;;;2.00;;
68577;SDS011;61668;45.388;11.784;2022-08-03T05:16:38;8.10;;;2.50;;
68577;SDS011;61668;45.388;11.784;2022-08-03T05:19:04;6.80;;;2.10;;
68577;SDS011;61668;45.388;11.784;2022-08-03T05:21:29;7.50;;;2.60;;
68577;SDS011;61668;45.388;11.784;2022-08-03T05:23:56;6.70;;;2.30;;
68577;SDS011;61668;45.388;11.784;2022-08-03T05:26:21;7.30;;;2.40;;
68577;SDS011;61668;45.388;11.784;2022-08-03T05:28:47;6.90;;;2.20;;
68577;SDS011;61668;45.388;11.784;2022-08-03T05:31:12;6.50;;;2.20;;
68577;SDS011;61668;45.388;11.784;2022-08-03T05:33:38;7.20;;;2.20;;
68577;SDS011;61668;45.388;11.784;2022-08-03T05:36:04;7.20;;;2.40;;
68577;SDS011;61668;45.388;11.784;2022-08-03T05:38:31;7.60;;;2.30;;
68577;SDS011;61668;45.388;11.784;2022-08-03T05:40:57;6.90;;;2.50;;
68577;SDS011;61668;45.388;11.784;2022-08-03T05:43:23;9.10;;;2.90;;
68577;SDS011;61668;45.388;11.784;2022-08-03T05:45:48;8.90;;;3.10;;
68577;SDS011;61668;45.388;11.784;2022-08-03T05:48:14;6.30;;;2.50;;
68577;SDS011;61668;45.388;11.784;2022-08-03T05:50:40;9.50;;;2.20;;
68577;SDS011;61668;45.388;11.784;2022-08-03T05:53:05;7.10;;;2.10;;
68577;SDS011;61668;45.388;11.784;2022-08-03T05:55:31;6.90;;;1.90;;
68577;SDS011;61668;45.388;11.784;2022-08-03T05:57:56;7.10;;;2.40;;
68577;SDS011;61668;45.388;11.784;2022-08-03T06:00:22;8.80;;;2.30;;
68577;SDS011;61668;45.388;11.784;2022-08-03T06:02:47;7.20;;;2.40;;
68577;SDS011;61668;45.388;11.784;2022-08-03T06:05:13;8.50;;;2.20;;
68577;SDS011;61668;45.388;11.784;2022-08-03T06:07:39;8.50;;;2.30;;
68577;SDS011;61668;45.388;11.784;2022-08-03T06:10:05;7.80;;;2.10;;
68577;SDS011;61668;45.388;11.784;2022-08-03T06:12:31;7.30;;;2.50;;
68577;SDS011;61668;45.388;11.784;2022-08-03T06:15:00;7.50;;;2.20;;
68577;SDS011;61668;45.388;11.784;2022-08-03T06:17:27;6.70;;;2.20;;
68577;SDS011;61668;45.388;11.784;2022-08-03T06:19:53;8.70;;;2.70;;
68577;SDS011;61668;45.388;11.784;2022-08-03T06:22:18;7.90;;;2.00;;
68577;SDS011;61668;45.388;11.784;2022-08-03T06:24:44;6.20;;;1.70;;
68577;SDS011;61668;45.388;11.784;2022-08-03T06:27:10;8.80;;;1.90;;
68577;SDS011;61668;45.388;11.784;2022-08-03T06:29:36;6.60;;;1.80;;
68577;SDS011;61668;45.388;11.784;2022-08-03T06:32:02;9.80;;;2.10;;
68577;SDS011;61668;45.388;11.784;2022-08-03T06:34:28;12.00;;;2.00;;
68577;SDS011;61668;45.388;11.784;2022-08-03T06:36:53;9.60;;;2.10;;
68577;SDS011;61668;45.388;11.784;2022-08-03T06:39:20;11.50;;;2.50;;
68577;SDS011;61668;45.388;11.784;2022-08-03T06:41:46;7.80;;;1.70;;
68577;SDS011;61668;45.388;11.784;2022-08-03T06:44:11;5.90;;;1.50;;
68577;SDS011;61668;45.388;11.784;2022-08-03T06:46:37;6.40;;;2.40;;
68577;SDS011;61668;45.388;11.784;2022-08-03T06:49:05;7.40;;;2.20;;
68577;SDS011;61668;45.388;11.784;2022-08-03T06:51:31;20.10;;;4.60;;
68577;SDS011;61668;45.388;11.784;2022-08-03T06:53:56;7.50;;;2.70;;
68577;SDS011;61668;45.388;11.784;2022-08-03T06:56:22;9.10;;;2.50;;
68577;SDS011;61668;45.388;11.784;2022-08-03T06:58:47;6.60;;;2.10;;
68577;SDS011;61668;45.388;11.784;2022-08-03T07:01:13;7.40;;;2.30;;
68577;SDS011;61668;45.388;11.784;2022-08-03T07:03:39;6.90;;;1.50;;
68577;SDS011;61668;45.388;11.784;2022-08-03T07:06:05;7.60;;;1.60;;
68577;SDS011;61668;45.388;11.784;2022-08-03T07:08:30;5.50;;;1.50;;
68577;SDS011;61668;45.388;11.784;2022-08-03T07:10:56;6.00;;;1.50;;
68577;SDS011;61668;45.388;11.784;2022-08-03T07:13:22;6.30;;;1.40;;
68577;SDS011;61668;45.388;11.784;2022-08-03T07:15:47;6.00;;;1.70;;
68577;SDS011;61668;45.388;11.784;2022-08-03T07:18:13;6.10;;;1.60;;
68577;SDS011;61668;45.388;11.784;2022-08-03T07:20:38;5.80;;;1.40;;
68577;SDS011;61668;45.388;11.784;2022-08-03T07:23:05;6.20;;;1.30;;
68577;SDS011;61668;45.388;11.784;2022-08-03T07:25:30;6.00;;;1.80;;
68577;SDS011;61668;45.388;11.784;2022-08-03T07:27:56;6.30;;;1.80;;
68577;SDS011;61668;45.388;11.784;2022-08-03T07:30:21;5.60;;;1.50;;
68577;SDS011;61668;45.388;11.784;2022-08-03T07:32:47;6.20;;;1.70;;
68577;SDS011;61668;45.388;11.784;2022-08-03T07:35:13;6.10;;;1.30;;
68577;SDS011;61668;45.388;11.784;2022-08-03T07:37:38;6.10;;;1.50;;
68577;SDS011;61668;45.388;11.784;2022-08-03T07:40:04;6.80;;;1.30;;
68577;SDS011;61668;45.388;11.784;2022-08-03T08:03:04;6.30;;;1.20;;
68577;SDS011;61668;45.388;11.784;2022-08-03T08:05:30;5.70;;;1.00;;
68577;SDS011;61668;45.388;11.784;2022-08-03T08:07:56;7.40;;;1.70;;
68577;SDS011;61668;45.388;11.784;2022-08-03T08:10:21;5.70;;;1.30;;
68577;SDS011;61668;45.388;11.784;2022-08-03T08:12:47;5.10;;;1.30;;
68577;SDS011;61668;45.388;11.784;2022-08-03T08:15:13;7.00;;;1.50;;
68577;SDS011;61668;45.388;11.784;2022-08-03T08:17:48;5.80;;;1.00;;
68577;SDS011;61668;45.388;11.784;2022-08-03T08:20:24;5.40;;;1.20;;
68577;SDS011;61668;45.388;11.784;2022-08-03T08:22:54;4.70;;;1.00;;
68577;SDS011;61668;45.388;11.784;2022-08-03T08:25:21;5.80;;;1.90;;
68577;SDS011;61668;45.388;11.784;2022-08-03T08:27:47;6.80;;;1.20;;
68577;SDS011;61668;45.388;11.784;2022-08-03T08:30:16;6.60;;;1.60;;
68577;SDS011;61668;45.388;11.784;2022-08-03T08:32:43;5.90;;;1.70;;
68577;SDS011;61668;45.388;11.784;2022-08-03T08:35:09;5.80;;;1.30;;
68577;SDS011;61668;45.388;11.784;2022-08-03T08:37:36;5.00;;;0.70;;
68577;SDS011;61668;45.388;11.784;2022-08-03T08:40:02;8.60;;;1.90;;
68577;SDS011;61668;45.388;11.784;2022-08-03T08:42:30;5.20;;;1.60;;
68577;SDS011;61668;45.388;11.784;2022-08-03T08:44:56;5.50;;;1.00;;
68577;SDS011;61668;45.388;11.784;2022-08-03T08:47:24;5.20;;;1.30;;
68577;SDS011;61668;45.388;11.784;2022-08-03T08:49:54;6.10;;;1.90;;
68577;SDS011;61668;45.388;11.784;2022-08-03T08:52:24;6.30;;;1.40;;
68577;SDS011;61668;45.388;11.784;2022-08-03T08:54:57;4.80;;;1.00;;
68577;SDS011;61668;45.388;11.784;2022-08-03T08:57:28;5.10;;;1.40;;
68577;SDS011;61668;45.388;11.784;2022-08-03T08:59:56;5.40;;;1.90;;
68577;SDS011;61668;45.388;11.784;2022-08-03T09:02:23;4.70;;;0.90;;
68577;SDS011;61668;45.388;11.784;2022-08-03T09:04:50;5.30;;;1.30;;
68577;SDS011;61668;45.388;11.784;2022-08-03T09:07:16;5.50;;;1.20;;
68577;SDS011;61668;45.388;11.784;2022-08-03T09:09:42;5.80;;;1.60;;
68577;SDS011;61668;45.388;11.784;2022-08-03T09:12:08;5.40;;;1.20;;
68577;SDS011;61668;45.388;11.784;2022-08-03T09:14:34;5.40;;;1.60;;
68577;SDS011;61668;45.388;11.784;2022-08-03T09:17:01;5.50;;;1.50;;
68577;SDS011;61668;45.388;11.784;2022-08-03T09:19:32;5.30;;;1.10;;
68577;SDS011;61668;45.388;11.784;2022-08-03T09:22:16;5.60;;;1.70;;
68577;SDS011;61668;45.388;11.784;2022-08-03T09:25:00;5.70;;;1.30;;
68577;SDS011;61668;45.388;11.784;2022-08-03T09:27:43;5.70;;;2.20;;
68577;SDS011;61668;45.388;11.784;2022-08-03T09:30:16;4.80;;;1.00;;
68577;SDS011;61668;45.388;11.784;2022-08-03T09:32:43;5.50;;;1.80;;
68577;SDS011;61668;45.388;11.784;2022-08-03T09:35:09;5.20;;;1.30;;
68577;SDS011;61668;45.388;11.784;2022-08-03T09:37:35;6.20;;;1.40;;
68577;SDS011;61668;45.388;11.784;2022-08-03T09:40:02;5.40;;;2.20;;
68577;SDS011;61668;45.388;11.784;2022-08-03T09:42:28;5.30;;;1.30;;
68577;SDS011;61668;45.388;11.784;2022-08-03T09:44:54;6.00;;;1.20;;
68577;SDS011;61668;45.388;11.784;2022-08-03T09:47:29;6.50;;;1.50;;
68577;SDS011;61668;45.388;11.784;2022-08-03T09:50:00;5.10;;;1.00;;
68577;SDS011;61668;45.388;11.784;2022-08-03T09:52:32;5.30;;;1.40;;
68577;SDS011;61668;45.388;11.784;2022-08-03T09:55:07;5.30;;;1.40;;
68577;SDS011;61668;45.388;11.784;2022-08-03T09:57:33;5.70;;;1.10;;
68577;SDS011;61668;45.388;11.784;2022-08-03T10:00:13;6.60;;;1.00;;
68577;SDS011;61668;45.388;11.784;2022-08-03T10:02:41;5.70;;;2.10;;
68577;SDS011;61668;45.388;11.784;2022-08-03T10:05:10;5.00;;;1.60;;
68577;SDS011;61668;45.388;11.784;2022-08-03T10:07:44;5.10;;;1.60;;
68577;SDS011;61668;45.388;11.784;2022-08-03T10:10:14;5.60;;;1.00;;
68577;SDS011;61668;45.388;11.784;2022-08-03T10:12:42;5.30;;;1.20;;
68577;SDS011;61668;45.388;11.784;2022-08-03T10:15:09;5.30;;;1.60;;
68577;SDS011;61668;45.388;11.784;2022-08-03T10:17:36;5.90;;;2.00;;
68577;SDS011;61668;45.388;11.784;2022-08-03T10:20:04;6.00;;;1.80;;
68577;SDS011;61668;45.388;11.784;2022-08-03T10:22:35;5.70;;;1.20;;
68577;SDS011;61668;45.388;11.784;2022-08-03T10:25:11;5.20;;;1.30;;
68577;SDS011;61668;45.388;11.784;2022-08-03T10:27:41;7.20;;;1.90;;
68577;SDS011;61668;45.388;11.784;2022-08-03T10:30:12;5.80;;;1.30;;
68577;SDS011;61668;45.388;11.784;2022-08-03T10:33:42;5.40;;;1.90;;
68577;SDS011;61668;45.388;11.784;2022-08-03T10:35:50;5.10;;;1.70;;
68577;SDS011;61668;45.388;11.784;2022-08-03T10:38:20;5.60;;;1.60;;
68577;SDS011;61668;45.388;11.784;2022-08-03T10:40:52;5.00;;;1.60;;
68577;SDS011;61668;45.388;11.784;2022-08-03T10:43:29;5.50;;;1.70;;
68577;SDS011;61668;45.388;11.784;2022-08-03T10:46:06;6.00;;;2.10;;
68577;SDS011;61668;45.388;11.784;2022-08-03T10:48:33;5.60;;;1.60;;
68577;SDS011;61668;45.388;11.784;2022-08-03T10:51:00;5.30;;;1.80;;
68577;SDS011;61668;45.388;11.784;2022-08-03T10:53:42;5.50;;;1.40;;
68577;SDS011;61668;45.388;11.784;2022-08-03T10:59:18;5.30;;;1.50;;
68577;SDS011;61668;45.388;11.784;2022-08-03T11:01:48;5.10;;;1.60;;
68577;SDS011;61668;45.388;11.784;2022-08-03T11:04:21;5.50;;;1.80;;
68577;SDS011;61668;45.388;11.784;2022-08-03T11:09:41;5.60;;;1.60;;
68577;SDS011;61668;45.388;11.784;2022-08-03T11:12:27;5.80;;;1.50;;
68577;SDS011;61668;45.388;11.784;2022-08-03T11:15:05;6.90;;;2.30;;
68577;SDS011;61668;45.388;11.784;2022-08-03T11:17:34;5.40;;;1.50;;
68577;SDS011;61668;45.388;11.784;2022-08-03T11:20:00;6.40;;;2.30;;
68577;SDS011;61668;45.388;11.784;2022-08-03T11:22:46;6.60;;;1.80;;
68577;SDS011;61668;45.388;11.784;2022-08-03T11:25:13;5.40;;;1.90;;
68577;SDS011;61668;45.388;11.784;2022-08-03T11:27:40;5.10;;;1.90;;
68577;SDS011;61668;45.388;11.784;2022-08-03T11:30:08;5.50;;;2.10;;
68577;SDS011;61668;45.388;11.784;2022-08-03T11:32:58;4.80;;;1.30;;
68577;SDS011;61668;45.388;11.784;2022-08-03T11:35:28;5.80;;;1.90;;
68577;SDS011;61668;45.388;11.784;2022-08-03T11:48:38;5.50;;;1.20;;
68577;SDS011;61668;45.388;11.784;2022-08-03T11:51:27;5.50;;;1.50;;
68577;SDS011;61668;45.388;11.784;2022-08-03T11:53:54;5.50;;;1.70;;
68577;SDS011;61668;45.388;11.784;2022-08-03T11:56:21;5.70;;;1.50;;
68577;SDS011;61668;45.388;11.784;2022-08-03T11:58:48;5.40;;;1.30;;
68577;SDS011;61668;45.388;11.784;2022-08-03T12:01:18;5.20;;;1.40;;
68577;SDS011;61668;45.388;11.784;2022-08-03T12:03:44;4.70;;;1.10;;
68577;SDS011;61668;45.388;11.784;2022-08-03T12:06:11;5.60;;;1.40;;
68577;SDS011;61668;45.388;11.784;2022-08-03T12:08:39;4.70;;;1.40;;
68577;SDS011;61668;45.388;11.784;2022-08-03T12:11:07;5.70;;;1.80;;
68577;SDS011;61668;45.388;11.784;2022-08-03T12:13:42;5.80;;;1.60;;
68577;SDS011;61668;45.388;11.784;2022-08-03T12:16:21;5.70;;;1.50;;
68577;SDS011;61668;45.388;11.784;2022-08-03T12:18:59;4.90;;;1.30;;
68577;SDS011;61668;45.388;11.784;2022-08-03T12:21:26;5.10;;;2.00;;
68577;SDS011;61668;45.388;11.784;2022-08-03T12:24:00;5.30;;;1.30;;
68577;SDS011;61668;45.388;11.784;2022-08-03T12:26:28;5.40;;;1.10;;
68577;SDS011;61668;45.388;11.784;2022-08-03T12:28:54;6.00;;;1.90;;
68577;SDS011;61668;45.388;11.784;2022-08-03T12:31:20;5.20;;;1.40;;
68577;SDS011;61668;45.388;11.784;2022-08-03T12:34:03;5.30;;;1.60;;
68577;SDS011;61668;45.388;11.784;2022-08-03T12:36:34;5.20;;;1.70;;
68577;SDS011;61668;45.388;11.784;2022-08-03T12:39:05;6.10;;;2.20;;
68577;SDS011;61668;45.388;11.784;2022-08-03T12:41:38;6.60;;;2.50;;
68577;SDS011;61668;45.388;11.784;2022-08-03T12:44:06;4.90;;;1.50;;
68577;SDS011;61668;45.388;11.784;2022-08-03T12:46:37;19.70;;;5.00;;
68577;SDS011;61668;45.388;11.784;2022-08-03T12:49:09;6.40;;;2.00;;
68577;SDS011;61668;45.388;11.784;2022-08-03T12:51:54;7.50;;;1.80;;
68577;SDS011;61668;45.388;11.784;2022-08-03T12:54:26;5.10;;;1.70;;
68577;SDS011;61668;45.388;11.784;2022-08-03T12:57:06;5.10;;;1.80;;
68577;SDS011;61668;45.388;11.784;2022-08-03T12:59:42;5.90;;;1.80;;
68577;SDS011;61668;45.388;11.784;2022-08-03T13:02:20;7.10;;;2.30;;
68577;SDS011;61668;45.388;11.784;2022-08-03T13:04:48;5.50;;;2.40;;
68577;SDS011;61668;45.388;11.784;2022-08-03T13:07:15;8.20;;;2.00;;
68577;SDS011;61668;45.388;11.784;2022-08-03T13:09:43;5.40;;;1.80;;
68577;SDS011;61668;45.388;11.784;2022-08-03T13:12:13;6.10;;;2.40;;
68577;SDS011;61668;45.388;11.784;2022-08-03T13:14:46;6.10;;;2.20;;
68577;SDS011;61668;45.388;11.784;2022-08-03T13:17:22;6.40;;;2.20;;
68577;SDS011;61668;45.388;11.784;2022-08-03T13:19:48;6.20;;;2.70;;
68577;SDS011;61668;45.388;11.784;2022-08-03T13:24:49;7.80;;;2.30;;
68577;SDS011;61668;45.388;11.784;2022-08-03T13:27:16;6.10;;;2.50;;
68577;SDS011;61668;45.388;11.784;2022-08-03T13:29:42;5.40;;;2.60;;
68577;SDS011;61668;45.388;11.784;2022-08-03T13:32:09;6.20;;;2.00;;
68577;SDS011;61668;45.388;11.784;2022-08-03T13:34:35;5.80;;;2.10;;
68577;SDS011;61668;45.388;11.784;2022-08-03T13:37:02;5.70;;;2.90;;
68577;SDS011;61668;45.388;11.784;2022-08-03T13:39:28;5.40;;;1.70;;
68577;SDS011;61668;45.388;11.784;2022-08-03T13:41:53;6.10;;;3.10;;
68577;SDS011;61668;45.388;11.784;2022-08-03T13:44:19;7.50;;;3.40;;
68577;SDS011;61668;45.388;11.784;2022-08-03T13:46:47;6.00;;;2.00;;
68577;SDS011;61668;45.388;11.784;2022-08-03T13:49:13;6.10;;;2.10;;
68577;SDS011;61668;45.388;11.784;2022-08-03T13:51:39;5.70;;;2.30;;
68577;SDS011;61668;45.388;11.784;2022-08-03T13:54:05;5.80;;;2.50;;
68577;SDS011;61668;45.388;11.784;2022-08-03T13:56:31;6.00;;;1.90;;
68577;SDS011;61668;45.388;11.784;2022-08-03T13:58:57;6.00;;;1.90;;
68577;SDS011;61668;45.388;11.784;2022-08-03T14:01:23;7.70;;;2.30;;
68577;SDS011;61668;45.388;11.784;2022-08-03T14:03:49;6.00;;;2.30;;
68577;SDS011;61668;45.388;11.784;2022-08-03T14:06:19;5.80;;;2.10;;
68577;SDS011;61668;45.388;11.784;2022-08-03T14:08:45;5.20;;;1.80;;
68577;SDS011;61668;45.388;11.784;2022-08-03T14:11:12;7.30;;;2.20;;
68577;SDS011;61668;45.388;11.784;2022-08-03T14:13:38;6.20;;;1.60;;
68577;SDS011;61668;45.388;11.784;2022-08-03T14:16:07;6.00;;;1.60;;
68577;SDS011;61668;45.388;11.784;2022-08-03T14:18:33;6.80;;;2.20;;
68577;SDS011;61668;45.388;11.784;2022-08-03T14:20:59;5.30;;;1.60;;
68577;SDS011;61668;45.388;11.784;2022-08-03T14:23:26;6.00;;;1.80;;
68577;SDS011;61668;45.388;11.784;2022-08-03T14:25:52;5.60;;;2.00;;
68577;SDS011;61668;45.388;11.784;2022-08-03T14:28:21;6.60;;;1.50;;
68577;SDS011;61668;45.388;11.784;2022-08-03T14:30:47;5.90;;;2.10;;
68577;SDS011;61668;45.388;11.784;2022-08-03T14:33:13;5.40;;;1.90;;
68577;SDS011;61668;45.388;11.784;2022-08-03T14:35:39;5.20;;;1.80;;
68577;SDS011;61668;45.388;11.784;2022-08-03T14:38:05;5.80;;;1.70;;
68577;SDS011;61668;45.388;11.784;2022-08-03T14:40:30;5.20;;;1.80;;
68577;SDS011;61668;45.388;11.784;2022-08-03T14:42:56;5.70;;;1.90;;
68577;SDS011;61668;45.388;11.784;2022-08-03T14:45:22;6.10;;;2.20;;
68577;SDS011;61668;45.388;11.784;2022-08-03T14:47:47;5.50;;;1.80;;
68577;SDS011;61668;45.388;11.784;2022-08-03T14:50:13;6.30;;;1.80;;
68577;SDS011;61668;45.388;11.784;2022-08-03T14:52:38;5.00;;;1.20;;
68577;SDS011;61668;45.388;11.784;2022-08-03T14:55:04;5.40;;;1.30;;
68577;SDS011;61668;45.388;11.784;2022-08-03T14:57:30;6.20;;;2.10;;
68577;SDS011;61668;45.388;11.784;2022-08-03T14:59:55;5.90;;;2.50;;
68577;SDS011;61668;45.388;11.784;2022-08-03T15:02:21;5.70;;;1.90;;
68577;SDS011;61668;45.388;11.784;2022-08-03T15:04:46;8.60;;;1.70;;
68577;SDS011;61668;45.388;11.784;2022-08-03T15:07:12;5.30;;;2.00;;
68577;SDS011;61668;45.388;11.784;2022-08-03T15:09:37;6.30;;;1.90;;
68577;SDS011;61668;45.388;11.784;2022-08-03T15:12:04;6.80;;;1.90;;
68577;SDS011;61668;45.388;11.784;2022-08-03T15:14:31;5.40;;;1.40;;
68577;SDS011;61668;45.388;11.784;2022-08-03T15:16:56;4.90;;;1.20;;
68577;SDS011;61668;45.388;11.784;2022-08-03T15:19:22;5.40;;;1.80;;
68577;SDS011;61668;45.388;11.784;2022-08-03T15:21:47;5.00;;;1.40;;
68577;SDS011;61668;45.388;11.784;2022-08-03T15:24:13;4.80;;;1.20;;
68577;SDS011;61668;45.388;11.784;2022-08-03T15:26:39;5.40;;;1.40;;
68577;SDS011;61668;45.388;11.784;2022-08-03T15:29:04;5.60;;;1.50;;